Airport ID:KRTS
Update Time (UTC):09/04/2020 07:44
Wind Speed (Knots):18
Wind Direction (Magnetic):10
Temperature (°C):11
Dew Point (°C):-4
Humidity (%):34
Altimeter (inHg):29.97
Density Altitude (Feet):
Visibility (Miles):10+
Clouds (Hundreds of feet):CLR
Present Weather:
METAR:METAR KRTS 090740Z AUTO 02015KT 10SM CLR 12/M04 A2997 RMK AO2

The data displayed is for advisory purposes only and is not to be used for flight planning or operations.

This page is not automatically refreshed. Reload the page to see current data.